sensor_id;sensor_type;location;lat;lon;timestamp;temperature;humidity
77829;DHT22;67019;51.034;3.728;2023-07-29T00:01:49;17.00;99.90
77829;DHT22;67019;51.034;3.728;2023-07-29T00:04:16;17.00;99.90
77829;DHT22;67019;51.034;3.728;2023-07-29T00:06:46;17.00;99.90
77829;DHT22;67019;51.034;3.728;2023-07-29T00:09:15;16.90;99.90
77829;DHT22;67019;51.034;3.728;2023-07-29T00:11:47;16.90;99.90
77829;DHT22;67019;51.034;3.728;2023-07-29T00:14:12;16.90;99.90
77829;DHT22;67019;51.034;3.728;2023-07-29T00:16:39;16.80;99.90
77829;DHT22;67019;51.034;3.728;2023-07-29T00:19:07;16.80;99.90
77829;DHT22;67019;51.034;3.728;2023-07-29T00:21:38;16.80;99.90
77829;DHT22;67019;51.034;3.728;2023-07-29T00:24:04;16.80;99.90
77829;DHT22;67019;51.034;3.728;2023-07-29T00:26:32;16.70;99.90
77829;DHT22;67019;51.034;3.728;2023-07-29T00:29:01;16.70;99.90
77829;DHT22;67019;51.034;3.728;2023-07-29T00:31:35;16.70;99.90
77829;DHT22;67019;51.034;3.728;2023-07-29T00:34:00;16.70;99.90
77829;DHT22;67019;51.034;3.728;2023-07-29T00:36:27;16.60;99.90
77829;DHT22;67019;51.034;3.728;2023-07-29T00:38:55;16.60;99.90
77829;DHT22;67019;51.034;3.728;2023-07-29T00:41:24;16.60;99.90
77829;DHT22;67019;51.034;3.728;2023-07-29T00:43:53;16.60;99.90
77829;DHT22;67019;51.034;3.728;2023-07-29T00:46:20;16.60;99.90
77829;DHT22;67019;51.034;3.728;2023-07-29T00:48:49;16.60;99.90
77829;DHT22;67019;51.034;3.728;2023-07-29T00:51:17;16.60;99.90
77829;DHT22;67019;51.034;3.728;2023-07-29T00:53:44;16.60;99.90
77829;DHT22;67019;51.034;3.728;2023-07-29T00:56:12;16.80;99.90
77829;DHT22;67019;51.034;3.728;2023-07-29T00:58:40;16.90;99.90
77829;DHT22;67019;51.034;3.728;2023-07-29T01:01:08;17.20;99.90
77829;DHT22;67019;51.034;3.728;2023-07-29T01:03:36;17.30;99.90
77829;DHT22;67019;51.034;3.728;2023-07-29T01:09:02;17.00;99.90
77829;DHT22;67019;51.034;3.728;2023-07-29T01:11:52;17.00;99.90
77829;DHT22;67019;51.034;3.728;2023-07-29T01:14:29;17.30;99.90
77829;DHT22;67019;51.034;3.728;2023-07-29T01:17:00;17.10;99.90
77829;DHT22;67019;51.034;3.728;2023-07-29T01:22:26;16.80;99.90
77829;DHT22;67019;51.034;3.728;2023-07-29T01:24:53;16.80;99.90
77829;DHT22;67019;51.034;3.728;2023-07-29T01:27:26;16.90;99.90
77829;DHT22;67019;51.034;3.728;2023-07-29T01:29:52;17.20;99.90
77829;DHT22;67019;51.034;3.728;2023-07-29T01:35:21;16.90;99.90
77829;DHT22;67019;51.034;3.728;2023-07-29T01:37:51;16.70;99.90
77829;DHT22;67019;51.034;3.728;2023-07-29T01:40:19;16.60;99.90
77829;DHT22;67019;51.034;3.728;2023-07-29T01:42:48;16.50;99.90
77829;DHT22;67019;51.034;3.728;2023-07-29T01:45:16;16.50;99.90
77829;DHT22;67019;51.034;3.728;2023-07-29T01:47:43;16.40;99.90
77829;DHT22;67019;51.034;3.728;2023-07-29T01:50:11;16.60;99.90
77829;DHT22;67019;51.034;3.728;2023-07-29T01:52:39;16.90;99.90
77829;DHT22;67019;51.034;3.728;2023-07-29T01:55:07;16.80;99.90
77829;DHT22;67019;51.034;3.728;2023-07-29T01:57:34;16.80;99.90
77829;DHT22;67019;51.034;3.728;2023-07-29T02:00:02;16.80;99.90
77829;DHT22;67019;51.034;3.728;2023-07-29T02:02:30;17.40;99.90
77829;DHT22;67019;51.034;3.728;2023-07-29T02:04:58;16.60;99.90
77829;DHT22;67019;51.034;3.728;2023-07-29T02:07:25;16.40;99.90
77829;DHT22;67019;51.034;3.728;2023-07-29T02:09:53;16.40;99.90
77829;DHT22;67019;51.034;3.728;2023-07-29T02:12:21;16.60;99.90
77829;DHT22;67019;51.034;3.728;2023-07-29T02:14:48;16.50;99.90
77829;DHT22;67019;51.034;3.728;2023-07-29T02:17:16;16.40;99.90
77829;DHT22;67019;51.034;3.728;2023-07-29T02:19:44;16.30;99.90
77829;DHT22;67019;51.034;3.728;2023-07-29T02:22:13;16.30;99.90
77829;DHT22;67019;51.034;3.728;2023-07-29T02:24:41;16.30;99.90
77829;DHT22;67019;51.034;3.728;2023-07-29T02:27:09;16.40;99.90
77829;DHT22;67019;51.034;3.728;2023-07-29T02:29:36;16.30;99.90
77829;DHT22;67019;51.034;3.728;2023-07-29T02:32:04;16.30;99.90
77829;DHT22;67019;51.034;3.728;2023-07-29T02:34:32;16.30;99.90
77829;DHT22;67019;51.034;3.728;2023-07-29T02:37:00;16.40;99.90
77829;DHT22;67019;51.034;3.728;2023-07-29T02:39:27;16.60;99.90
77829;DHT22;67019;51.034;3.728;2023-07-29T02:41:55;16.80;99.90
77829;DHT22;67019;51.034;3.728;2023-07-29T02:44:25;16.50;99.90
77829;DHT22;67019;51.034;3.728;2023-07-29T02:46:52;16.40;99.90
77829;DHT22;67019;51.034;3.728;2023-07-29T02:49:22;16.40;99.90
77829;DHT22;67019;51.034;3.728;2023-07-29T02:51:53;16.90;99.90
77829;DHT22;67019;51.034;3.728;2023-07-29T02:54:19;16.60;99.90
77829;DHT22;67019;51.034;3.728;2023-07-29T02:56:47;16.30;99.90
77829;DHT22;67019;51.034;3.728;2023-07-29T02:59:14;16.10;99.90
77829;DHT22;67019;51.034;3.728;2023-07-29T03:01:42;16.10;99.90
77829;DHT22;67019;51.034;3.728;2023-07-29T03:04:10;16.10;99.90
77829;DHT22;67019;51.034;3.728;2023-07-29T03:06:39;16.10;99.90
77829;DHT22;67019;51.034;3.728;2023-07-29T03:09:07;16.10;99.90
77829;DHT22;67019;51.034;3.728;2023-07-29T03:11:34;16.10;99.90
77829;DHT22;67019;51.034;3.728;2023-07-29T03:14:04;16.10;99.90
77829;DHT22;67019;51.034;3.728;2023-07-29T03:16:33;16.10;99.90
77829;DHT22;67019;51.034;3.728;2023-07-29T03:19:01;16.00;99.90
77829;DHT22;67019;51.034;3.728;2023-07-29T03:21:30;16.00;99.90
77829;DHT22;67019;51.034;3.728;2023-07-29T03:23:57;16.10;99.90
77829;DHT22;67019;51.034;3.728;2023-07-29T03:26:25;16.10;99.90
77829;DHT22;67019;51.034;3.728;2023-07-29T03:28:53;16.20;99.90
77829;DHT22;67019;51.034;3.728;2023-07-29T03:31:20;16.10;99.90
77829;DHT22;67019;51.034;3.728;2023-07-29T03:33:48;16.20;99.90
77829;DHT22;67019;51.034;3.728;2023-07-29T03:36:21;16.10;99.90
77829;DHT22;67019;51.034;3.728;2023-07-29T03:38:45;16.60;99.90
77829;DHT22;67019;51.034;3.728;2023-07-29T03:41:13;16.40;99.90
77829;DHT22;67019;51.034;3.728;2023-07-29T03:43:41;16.30;99.90
77829;DHT22;67019;51.034;3.728;2023-07-29T03:46:09;16.20;99.90
77829;DHT22;67019;51.034;3.728;2023-07-29T03:48:36;16.20;99.90
77829;DHT22;67019;51.034;3.728;2023-07-29T03:51:04;16.20;99.90
77829;DHT22;67019;51.034;3.728;2023-07-29T03:53:37;16.20;99.90
77829;DHT22;67019;51.034;3.728;2023-07-29T03:56:01;16.30;99.90
77829;DHT22;67019;51.034;3.728;2023-07-29T03:58:29;16.20;99.90
77829;DHT22;67019;51.034;3.728;2023-07-29T04:00:58;16.20;99.90
77829;DHT22;67019;51.034;3.728;2023-07-29T04:03:25;16.10;99.90
77829;DHT22;67019;51.034;3.728;2023-07-29T04:05:53;16.20;99.90
77829;DHT22;67019;51.034;3.728;2023-07-29T04:08:21;16.40;99.90
77829;DHT22;67019;51.034;3.728;2023-07-29T04:10:48;16.60;99.90
77829;DHT22;67019;51.034;3.728;2023-07-29T04:13:16;16.40;99.90
77829;DHT22;67019;51.034;3.728;2023-07-29T04:15:44;16.30;99.90
77829;DHT22;67019;51.034;3.728;2023-07-29T04:18:12;16.20;99.90
77829;DHT22;67019;51.034;3.728;2023-07-29T04:20:39;16.20;99.90
77829;DHT22;67019;51.034;3.728;2023-07-29T04:23:12;16.20;99.90
77829;DHT22;67019;51.034;3.728;2023-07-29T04:25:38;16.30;99.90
77829;DHT22;67019;51.034;3.728;2023-07-29T04:28:05;16.50;99.90
77829;DHT22;67019;51.034;3.728;2023-07-29T04:30:33;16.50;99.90
77829;DHT22;67019;51.034;3.728;2023-07-29T04:33:01;16.30;99.90
77829;DHT22;67019;51.034;3.728;2023-07-29T04:35:28;16.00;99.90
77829;DHT22;67019;51.034;3.728;2023-07-29T04:37:56;16.00;99.90
77829;DHT22;67019;51.034;3.728;2023-07-29T04:40:24;15.90;99.90
77829;DHT22;67019;51.034;3.728;2023-07-29T04:42:51;16.00;99.90
77829;DHT22;67019;51.034;3.728;2023-07-29T04:45:19;16.00;99.90
77829;DHT22;67019;51.034;3.728;2023-07-29T04:47:47;16.10;99.90
77829;DHT22;67019;51.034;3.728;2023-07-29T04:50:14;16.20;99.90
77829;DHT22;67019;51.034;3.728;2023-07-29T04:52:42;16.10;99.90
77829;DHT22;67019;51.034;3.728;2023-07-29T04:55:09;16.00;99.90
77829;DHT22;67019;51.034;3.728;2023-07-29T04:57:37;16.10;99.90
77829;DHT22;67019;51.034;3.728;2023-07-29T05:00:05;16.30;99.90
77829;DHT22;67019;51.034;3.728;2023-07-29T05:02:33;16.20;99.90
77829;DHT22;67019;51.034;3.728;2023-07-29T05:05:01;16.40;99.90
77829;DHT22;67019;51.034;3.728;2023-07-29T05:07:28;16.30;99.90
77829;DHT22;67019;51.034;3.728;2023-07-29T05:09:56;16.20;99.90
77829;DHT22;67019;51.034;3.728;2023-07-29T05:12:24;16.30;99.90
77829;DHT22;67019;51.034;3.728;2023-07-29T05:14:51;16.20;99.90
77829;DHT22;67019;51.034;3.728;2023-07-29T05:17:22;16.20;99.90
77829;DHT22;67019;51.034;3.728;2023-07-29T05:19:51;16.40;99.90
77829;DHT22;67019;51.034;3.728;2023-07-29T05:22:18;16.60;99.90
77829;DHT22;67019;51.034;3.728;2023-07-29T05:24:46;16.90;99.90
77829;DHT22;67019;51.034;3.728;2023-07-29T05:27:14;17.20;99.90
77829;DHT22;67019;51.034;3.728;2023-07-29T05:29:42;17.30;99.90
77829;DHT22;67019;51.034;3.728;2023-07-29T05:32:13;17.50;99.90
77829;DHT22;67019;51.034;3.728;2023-07-29T05:34:38;17.60;99.90
77829;DHT22;67019;51.034;3.728;2023-07-29T05:37:06;17.50;99.90
77829;DHT22;67019;51.034;3.728;2023-07-29T05:39:34;17.40;99.90
77829;DHT22;67019;51.034;3.728;2023-07-29T05:42:01;17.20;99.90
77829;DHT22;67019;51.034;3.728;2023-07-29T05:44:32;17.10;99.90
77829;DHT22;67019;51.034;3.728;2023-07-29T05:46:59;17.30;99.90
77829;DHT22;67019;51.034;3.728;2023-07-29T05:49:28;17.30;99.90
77829;DHT22;67019;51.034;3.728;2023-07-29T05:51:56;17.30;99.90
77829;DHT22;67019;51.034;3.728;2023-07-29T05:54:23;17.20;99.90
77829;DHT22;67019;51.034;3.728;2023-07-29T05:56:51;17.50;99.90
77829;DHT22;67019;51.034;3.728;2023-07-29T05:59:19;17.40;99.90
77829;DHT22;67019;51.034;3.728;2023-07-29T06:01:49;17.60;99.90
77829;DHT22;67019;51.034;3.728;2023-07-29T06:04:17;17.60;99.90
77829;DHT22;67019;51.034;3.728;2023-07-29T06:06:44;17.50;99.90
77829;DHT22;67019;51.034;3.728;2023-07-29T06:09:12;17.50;99.90
77829;DHT22;67019;51.034;3.728;2023-07-29T06:11:39;17.50;99.90
77829;DHT22;67019;51.034;3.728;2023-07-29T06:14:07;17.70;99.90
77829;DHT22;67019;51.034;3.728;2023-07-29T06:16:35;17.80;99.90
77829;DHT22;67019;51.034;3.728;2023-07-29T06:19:04;17.90;99.90
77829;DHT22;67019;51.034;3.728;2023-07-29T06:21:32;18.20;99.90
77829;DHT22;67019;51.034;3.728;2023-07-29T06:23:59;18.20;99.90
77829;DHT22;67019;51.034;3.728;2023-07-29T06:26:27;17.90;99.90
77829;DHT22;67019;51.034;3.728;2023-07-29T06:28:55;17.90;99.90
77829;DHT22;67019;51.034;3.728;2023-07-29T06:31:23;17.80;99.90
77829;DHT22;67019;51.034;3.728;2023-07-29T06:33:53;17.80;99.90
77829;DHT22;67019;51.034;3.728;2023-07-29T06:36:21;17.90;99.90
77829;DHT22;67019;51.034;3.728;2023-07-29T06:38:49;17.80;99.90
77829;DHT22;67019;51.034;3.728;2023-07-29T06:41:18;17.90;99.90
77829;DHT22;67019;51.034;3.728;2023-07-29T06:43:45;17.90;99.90
77829;DHT22;67019;51.034;3.728;2023-07-29T06:46:13;18.40;99.90
77829;DHT22;67019;51.034;3.728;2023-07-29T06:48:41;18.20;99.90
77829;DHT22;67019;51.034;3.728;2023-07-29T06:51:10;18.10;99.90
77829;DHT22;67019;51.034;3.728;2023-07-29T06:53:37;18.30;99.90
77829;DHT22;67019;51.034;3.728;2023-07-29T06:56:05;18.60;99.90
77829;DHT22;67019;51.034;3.728;2023-07-29T06:58:34;18.30;99.90
77829;DHT22;67019;51.034;3.728;2023-07-29T07:01:02;18.60;99.90
77829;DHT22;67019;51.034;3.728;2023-07-29T07:03:30;18.80;99.90
77829;DHT22;67019;51.034;3.728;2023-07-29T07:05:59;18.80;99.90
77829;DHT22;67019;51.034;3.728;2023-07-29T07:08:27;18.90;99.90
77829;DHT22;67019;51.034;3.728;2023-07-29T07:10:54;19.10;99.90
77829;DHT22;67019;51.034;3.728;2023-07-29T07:13:22;19.00;99.90
77829;DHT22;67019;51.034;3.728;2023-07-29T07:15:50;19.20;99.90
77829;DHT22;67019;51.034;3.728;2023-07-29T07:18:17;19.10;99.90
77829;DHT22;67019;51.034;3.728;2023-07-29T07:20:47;19.10;99.90
77829;DHT22;67019;51.034;3.728;2023-07-29T07:23:16;19.10;99.90
77829;DHT22;67019;51.034;3.728;2023-07-29T07:25:44;19.10;99.90
77829;DHT22;67019;51.034;3.728;2023-07-29T07:28:12;19.40;99.90
77829;DHT22;67019;51.034;3.728;2023-07-29T07:30:42;19.20;99.90
77829;DHT22;67019;51.034;3.728;2023-07-29T07:33:12;19.10;99.90
77829;DHT22;67019;51.034;3.728;2023-07-29T07:35:38;18.90;99.90
77829;DHT22;67019;51.034;3.728;2023-07-29T07:38:08;18.80;99.90
77829;DHT22;67019;51.034;3.728;2023-07-29T07:40:36;19.60;99.90
77829;DHT22;67019;51.034;3.728;2023-07-29T07:43:04;18.90;99.90
77829;DHT22;67019;51.034;3.728;2023-07-29T07:45:33;19.00;99.90
77829;DHT22;67019;51.034;3.728;2023-07-29T07:48:01;19.30;99.90
77829;DHT22;67019;51.034;3.728;2023-07-29T07:50:30;19.40;99.90
77829;DHT22;67019;51.034;3.728;2023-07-29T07:52:58;19.70;99.90
77829;DHT22;67019;51.034;3.728;2023-07-29T07:55:26;20.10;99.90
77829;DHT22;67019;51.034;3.728;2023-07-29T07:57:53;20.10;99.90
77829;DHT22;67019;51.034;3.728;2023-07-29T08:00:23;20.20;99.90
77829;DHT22;67019;51.034;3.728;2023-07-29T08:02:51;20.40;99.90
77829;DHT22;67019;51.034;3.728;2023-07-29T08:05:18;20.40;99.90
77829;DHT22;67019;51.034;3.728;2023-07-29T08:07:46;20.00;99.90
77829;DHT22;67019;51.034;3.728;2023-07-29T08:10:13;19.80;99.90
77829;DHT22;67019;51.034;3.728;2023-07-29T08:12:41;19.80;99.90
77829;DHT22;67019;51.034;3.728;2023-07-29T08:15:10;19.80;99.90
77829;DHT22;67019;51.034;3.728;2023-07-29T08:17:38;19.90;99.90
77829;DHT22;67019;51.034;3.728;2023-07-29T08:20:07;20.40;99.90
77829;DHT22;67019;51.034;3.728;2023-07-29T08:22:39;20.80;99.90
77829;DHT22;67019;51.034;3.728;2023-07-29T08:25:08;20.90;99.90
77829;DHT22;67019;51.034;3.728;2023-07-29T08:27:41;21.10;99.90
77829;DHT22;67019;51.034;3.728;2023-07-29T08:30:08;21.10;99.90
77829;DHT22;67019;51.034;3.728;2023-07-29T08:32:41;20.60;99.90
77829;DHT22;67019;51.034;3.728;2023-07-29T08:35:05;20.30;99.90
77829;DHT22;67019;51.034;3.728;2023-07-29T08:37:33;20.50;99.90
77829;DHT22;67019;51.034;3.728;2023-07-29T08:40:03;20.80;99.90
77829;DHT22;67019;51.034;3.728;2023-07-29T08:42:32;21.20;99.90
77829;DHT22;67019;51.034;3.728;2023-07-29T08:45:08;21.90;99.90
77829;DHT22;67019;51.034;3.728;2023-07-29T08:47:37;22.00;99.90
77829;DHT22;67019;51.034;3.728;2023-07-29T08:50:06;22.20;99.90
77829;DHT22;67019;51.034;3.728;2023-07-29T08:52:34;21.50;99.90
77829;DHT22;67019;51.034;3.728;2023-07-29T08:55:02;21.70;99.90
77829;DHT22;67019;51.034;3.728;2023-07-29T08:57:30;21.70;99.90
77829;DHT22;67019;51.034;3.728;2023-07-29T08:59:58;21.60;99.90
77829;DHT22;67019;51.034;3.728;2023-07-29T09:02:27;21.50;99.90
77829;DHT22;67019;51.034;3.728;2023-07-29T09:04:55;21.10;99.90
77829;DHT22;67019;51.034;3.728;2023-07-29T09:07:23;21.10;99.90
77829;DHT22;67019;51.034;3.728;2023-07-29T09:09:50;21.00;99.90
77829;DHT22;67019;51.034;3.728;2023-07-29T09:12:18;20.60;99.90
77829;DHT22;67019;51.034;3.728;2023-07-29T09:14:46;20.50;99.90
77829;DHT22;67019;51.034;3.728;2023-07-29T09:17:14;20.40;99.90
77829;DHT22;67019;51.034;3.728;2023-07-29T09:19:42;20.40;99.90
77829;DHT22;67019;51.034;3.728;2023-07-29T09:22:20;20.60;99.90
77829;DHT22;67019;51.034;3.728;2023-07-29T09:24:47;20.80;99.90
77829;DHT22;67019;51.034;3.728;2023-07-29T09:27:28;21.00;99.90
77829;DHT22;67019;51.034;3.728;2023-07-29T09:29:59;21.00;99.90
77829;DHT22;67019;51.034;3.728;2023-07-29T09:32:31;21.30;99.90
77829;DHT22;67019;51.034;3.728;2023-07-29T09:34:59;21.10;99.90
77829;DHT22;67019;51.034;3.728;2023-07-29T09:37:27;20.80;99.90
77829;DHT22;67019;51.034;3.728;2023-07-29T09:40:00;21.60;99.90
77829;DHT22;67019;51.034;3.728;2023-07-29T09:42:25;20.90;99.90
77829;DHT22;67019;51.034;3.728;2023-07-29T09:44:54;21.00;99.90
77829;DHT22;67019;51.034;3.728;2023-07-29T09:47:23;20.60;99.90
77829;DHT22;67019;51.034;3.728;2023-07-29T09:49:52;20.50;99.90
77829;DHT22;67019;51.034;3.728;2023-07-29T09:52:22;20.50;99.90
77829;DHT22;67019;51.034;3.728;2023-07-29T09:54:50;20.20;99.90
77829;DHT22;67019;51.034;3.728;2023-07-29T09:57:19;19.90;99.90
77829;DHT22;67019;51.034;3.728;2023-07-29T09:59:56;19.90;99.90
77829;DHT22;67019;51.034;3.728;2023-07-29T10:02:24;19.90;99.90
77829;DHT22;67019;51.034;3.728;2023-07-29T10:04:56;19.80;99.90
77829;DHT22;67019;51.034;3.728;2023-07-29T10:07:24;19.80;99.90
77829;DHT22;67019;51.034;3.728;2023-07-29T10:09:52;20.00;99.90
77829;DHT22;67019;51.034;3.728;2023-07-29T10:12:20;20.10;99.90
77829;DHT22;67019;51.034;3.728;2023-07-29T10:14:49;20.30;99.90
77829;DHT22;67019;51.034;3.728;2023-07-29T10:17:19;20.40;99.90
77829;DHT22;67019;51.034;3.728;2023-07-29T10:19:48;20.30;99.90
77829;DHT22;67019;51.034;3.728;2023-07-29T10:22:18;20.70;99.90
77829;DHT22;67019;51.034;3.728;2023-07-29T10:24:47;20.50;99.90
77829;DHT22;67019;51.034;3.728;2023-07-29T10:27:17;20.10;99.90
77829;DHT22;67019;51.034;3.728;2023-07-29T10:29:45;19.60;99.90
77829;DHT22;67019;51.034;3.728;2023-07-29T10:32:13;19.60;99.90
77829;DHT22;67019;51.034;3.728;2023-07-29T10:34:42;19.40;99.90
77829;DHT22;67019;51.034;3.728;2023-07-29T10:37:11;18.90;99.90
77829;DHT22;67019;51.034;3.728;2023-07-29T10:39:40;18.70;99.90
77829;DHT22;67019;51.034;3.728;2023-07-29T10:42:09;18.60;99.90
77829;DHT22;67019;51.034;3.728;2023-07-29T10:47:13;18.30;99.90
77829;DHT22;67019;51.034;3.728;2023-07-29T10:49:43;18.20;99.90
77829;DHT22;67019;51.034;3.728;2023-07-29T10:52:17;18.20;99.90
77829;DHT22;67019;51.034;3.728;2023-07-29T10:54:46;18.10;99.90
77829;DHT22;67019;51.034;3.728;2023-07-29T10:57:15;18.30;99.90
77829;DHT22;67019;51.034;3.728;2023-07-29T10:59:54;18.40;99.90
77829;DHT22;67019;51.034;3.728;2023-07-29T11:02:33;18.20;99.90
77829;DHT22;67019;51.034;3.728;2023-07-29T11:05:06;18.10;99.90
77829;DHT22;67019;51.034;3.728;2023-07-29T11:07:44;18.10;99.90
77829;DHT22;67019;51.034;3.728;2023-07-29T11:10:14;18.40;99.90
77829;DHT22;67019;51.034;3.728;2023-07-29T11:12:46;18.70;99.90
77829;DHT22;67019;51.034;3.728;2023-07-29T11:15:20;18.90;99.90
77829;DHT22;67019;51.034;3.728;2023-07-29T11:17:50;19.20;99.90
77829;DHT22;67019;51.034;3.728;2023-07-29T11:20:20;19.30;99.90
77829;DHT22;67019;51.034;3.728;2023-07-29T11:22:49;19.20;99.90
77829;DHT22;67019;51.034;3.728;2023-07-29T11:25:17;19.00;99.90
77829;DHT22;67019;51.034;3.728;2023-07-29T11:27:46;18.80;99.90
77829;DHT22;67019;51.034;3.728;2023-07-29T11:30:15;19.10;99.90
77829;DHT22;67019;51.034;3.728;2023-07-29T11:32:45;19.60;99.90
77829;DHT22;67019;51.034;3.728;2023-07-29T11:35:17;20.00;99.90
77829;DHT22;67019;51.034;3.728;2023-07-29T11:37:47;20.10;99.90
77829;DHT22;67019;51.034;3.728;2023-07-29T11:40:18;20.20;99.90
77829;DHT22;67019;51.034;3.728;2023-07-29T11:42:45;20.10;99.90
77829;DHT22;67019;51.034;3.728;2023-07-29T11:45:14;20.30;99.90
77829;DHT22;67019;51.034;3.728;2023-07-29T11:47:42;19.70;99.90
77829;DHT22;67019;51.034;3.728;2023-07-29T11:50:11;19.60;99.90
77829;DHT22;67019;51.034;3.728;2023-07-29T11:52:46;19.90;99.90
77829;DHT22;67019;51.034;3.728;2023-07-29T11:55:11;19.90;99.90
77829;DHT22;67019;51.034;3.728;2023-07-29T11:57:39;20.20;99.90
77829;DHT22;67019;51.034;3.728;2023-07-29T12:00:09;20.30;99.90
77829;DHT22;67019;51.034;3.728;2023-07-29T12:02:42;20.30;99.90
77829;DHT22;67019;51.034;3.728;2023-07-29T12:05:14;20.80;99.90
77829;DHT22;67019;51.034;3.728;2023-07-29T12:07:43;20.60;99.90
77829;DHT22;67019;51.034;3.728;2023-07-29T12:10:12;20.60;99.90
77829;DHT22;67019;51.034;3.728;2023-07-29T12:12:46;21.10;99.90
77829;DHT22;67019;51.034;3.728;2023-07-29T12:15:25;21.30;99.90
77829;DHT22;67019;51.034;3.728;2023-07-29T12:17:58;21.20;99.90
77829;DHT22;67019;51.034;3.728;2023-07-29T12:20:28;21.70;99.90
77829;DHT22;67019;51.034;3.728;2023-07-29T12:22:59;21.80;99.90
77829;DHT22;67019;51.034;3.728;2023-07-29T12:25:32;21.70;99.90
77829;DHT22;67019;51.034;3.728;2023-07-29T12:28:04;22.00;99.90
77829;DHT22;67019;51.034;3.728;2023-07-29T12:30:33;21.90;99.90
77829;DHT22;67019;51.034;3.728;2023-07-29T12:33:00;22.50;99.90
77829;DHT22;67019;51.034;3.728;2023-07-29T12:35:36;22.90;99.90
77829;DHT22;67019;51.034;3.728;2023-07-29T12:38:04;23.60;99.90
77829;DHT22;67019;51.034;3.728;2023-07-29T12:40:31;22.80;99.90
77829;DHT22;67019;51.034;3.728;2023-07-29T12:43:00;22.90;99.90
77829;DHT22;67019;51.034;3.728;2023-07-29T12:45:28;22.70;99.90
77829;DHT22;67019;51.034;3.728;2023-07-29T12:47:57;22.50;99.90
77829;DHT22;67019;51.034;3.728;2023-07-29T12:50:25;22.90;99.90
77829;DHT22;67019;51.034;3.728;2023-07-29T12:52:53;23.40;99.90
77829;DHT22;67019;51.034;3.728;2023-07-29T12:55:20;23.90;99.90
77829;DHT22;67019;51.034;3.728;2023-07-29T12:57:49;23.60;99.90
77829;DHT22;67019;51.034;3.728;2023-07-29T13:00:16;23.40;99.90
77829;DHT22;67019;51.034;3.728;2023-07-29T13:02:44;22.80;99.90
77829;DHT22;67019;51.034;3.728;2023-07-29T13:05:12;22.40;99.90
77829;DHT22;67019;51.034;3.728;2023-07-29T13:07:40;22.60;99.90
77829;DHT22;67019;51.034;3.728;2023-07-29T13:10:09;22.90;99.90
77829;DHT22;67019;51.034;3.728;2023-07-29T13:12:36;23.00;99.90
77829;DHT22;67019;51.034;3.728;2023-07-29T13:15:05;23.00;99.90
77829;DHT22;67019;51.034;3.728;2023-07-29T13:17:33;22.70;99.90
77829;DHT22;67019;51.034;3.728;2023-07-29T13:20:01;22.40;99.90
77829;DHT22;67019;51.034;3.728;2023-07-29T13:22:30;22.30;99.90
77829;DHT22;67019;51.034;3.728;2023-07-29T13:24:57;22.30;99.90
77829;DHT22;67019;51.034;3.728;2023-07-29T13:27:25;22.10;99.90
77829;DHT22;67019;51.034;3.728;2023-07-29T13:29:53;22.00;99.90
77829;DHT22;67019;51.034;3.728;2023-07-29T13:32:20;22.00;99.90
77829;DHT22;67019;51.034;3.728;2023-07-29T13:34:48;21.20;99.90
77829;DHT22;67019;51.034;3.728;2023-07-29T13:37:16;20.50;99.90
77829;DHT22;67019;51.034;3.728;2023-07-29T13:39:44;19.80;99.90
77829;DHT22;67019;51.034;3.728;2023-07-29T13:42:11;19.50;99.90
77829;DHT22;67019;51.034;3.728;2023-07-29T13:44:39;19.50;99.90
77829;DHT22;67019;51.034;3.728;2023-07-29T13:47:06;19.40;99.90
77829;DHT22;67019;51.034;3.728;2023-07-29T13:49:34;19.50;99.90
77829;DHT22;67019;51.034;3.728;2023-07-29T13:52:02;19.40;99.90
77829;DHT22;67019;51.034;3.728;2023-07-29T13:54:29;19.10;99.90
77829;DHT22;67019;51.034;3.728;2023-07-29T13:56:57;18.80;99.90
77829;DHT22;67019;51.034;3.728;2023-07-29T13:59:25;18.70;99.90
77829;DHT22;67019;51.034;3.728;2023-07-29T14:01:52;19.20;99.90
77829;DHT22;67019;51.034;3.728;2023-07-29T14:04:22;20.40;99.90
77829;DHT22;67019;51.034;3.728;2023-07-29T14:06:49;20.70;99.90
77829;DHT22;67019;51.034;3.728;2023-07-29T14:09:19;21.40;99.90
77829;DHT22;67019;51.034;3.728;2023-07-29T14:11:46;21.00;99.90
77829;DHT22;67019;51.034;3.728;2023-07-29T14:14:15;21.70;99.90
77829;DHT22;67019;51.034;3.728;2023-07-29T14:16:43;22.20;99.90
77829;DHT22;67019;51.034;3.728;2023-07-29T14:19:11;21.90;99.90
77829;DHT22;67019;51.034;3.728;2023-07-29T14:21:38;21.90;99.90
77829;DHT22;67019;51.034;3.728;2023-07-29T14:24:06;23.00;99.90
77829;DHT22;67019;51.034;3.728;2023-07-29T14:26:35;21.90;99.90
77829;DHT22;67019;51.034;3.728;2023-07-29T14:29:03;22.30;99.90
77829;DHT22;67019;51.034;3.728;2023-07-29T14:31:32;22.40;99.90
77829;DHT22;67019;51.034;3.728;2023-07-29T14:34:00;22.20;99.90
77829;DHT22;67019;51.034;3.728;2023-07-29T14:36:28;21.40;99.90
77829;DHT22;67019;51.034;3.728;2023-07-29T14:38:55;20.80;99.90
77829;DHT22;67019;51.034;3.728;2023-07-29T14:41:23;21.00;99.90
77829;DHT22;67019;51.034;3.728;2023-07-29T14:43:51;21.00;99.90
77829;DHT22;67019;51.034;3.728;2023-07-29T14:46:18;21.40;99.90
77829;DHT22;67019;51.034;3.728;2023-07-29T14:48:47;21.50;99.90
77829;DHT22;67019;51.034;3.728;2023-07-29T14:51:17;21.70;99.90
77829;DHT22;67019;51.034;3.728;2023-07-29T14:53:45;22.50;99.90
77829;DHT22;67019;51.034;3.728;2023-07-29T14:56:13;22.20;99.90
77829;DHT22;67019;51.034;3.728;2023-07-29T14:58:42;23.40;99.90
77829;DHT22;67019;51.034;3.728;2023-07-29T15:01:10;23.90;99.90
77829;DHT22;67019;51.034;3.728;2023-07-29T15:03:37;24.20;99.90
77829;DHT22;67019;51.034;3.728;2023-07-29T15:06:05;25.40;99.90
77829;DHT22;67019;51.034;3.728;2023-07-29T15:08:33;24.10;99.90
77829;DHT22;67019;51.034;3.728;2023-07-29T15:11:01;23.00;99.90
77829;DHT22;67019;51.034;3.728;2023-07-29T15:13:29;23.40;99.90
77829;DHT22;67019;51.034;3.728;2023-07-29T15:15:56;23.90;99.90
77829;DHT22;67019;51.034;3.728;2023-07-29T15:18:24;24.70;99.90
77829;DHT22;67019;51.034;3.728;2023-07-29T15:20:53;24.80;99.90
77829;DHT22;67019;51.034;3.728;2023-07-29T15:23:21;24.60;99.90
77829;DHT22;67019;51.034;3.728;2023-07-29T15:25:48;23.90;99.90
77829;DHT22;67019;51.034;3.728;2023-07-29T15:28:16;23.90;99.90
77829;DHT22;67019;51.034;3.728;2023-07-29T15:30:43;22.90;99.90
77829;DHT22;67019;51.034;3.728;2023-07-29T15:33:11;22.80;99.90
77829;DHT22;67019;51.034;3.728;2023-07-29T15:35:39;22.70;99.90
77829;DHT22;67019;51.034;3.728;2023-07-29T15:38:07;22.40;99.90
77829;DHT22;67019;51.034;3.728;2023-07-29T15:40:37;22.30;99.90
77829;DHT22;67019;51.034;3.728;2023-07-29T15:43:04;22.40;99.90
77829;DHT22;67019;51.034;3.728;2023-07-29T15:45:32;22.80;99.90
77829;DHT22;67019;51.034;3.728;2023-07-29T15:48:00;24.10;98.10
77829;DHT22;67019;51.034;3.728;2023-07-29T15:50:28;25.30;96.20